Nebo, NC (28761)

12:48 AM EST on February 11, 2016 (GMT -0500)
Highway 70 E, Nebo, North Carolina | | Change Station
CLOSE
Current Station
Personal Weather Station
Location: Nebo, NC
Elevation: 1339 ft
Nearby Weather Stations

Elev 1339 ft 35.71 °N, 81.90 °W | Updated 7 minutes ago

Clear
Clear
23.9 °F
Feels Like 20 °F
N
3.2
Wind Variable Wind from WNW

Today
High -- | Low -- °F
--% Chance of Precip.
Yesterday
High -- | Low -- °F
Precip. -- in
Pressure 30.06 in
Visibility 10.0 miles
Clouds Clear
Windchill 20 °F
Dew Point 6 °F
Humidity 45%
Rainfall 0.00 in
Snow Depth Not available.
7:19 AM 6:05 PM
Waxing Crescent, 9% visible
METAR KFQD 110535Z AUTO 28006KT 10SM CLR M04/M17 A3006 RMK AO2 T10361170
Pressure 30.06 in
Visibility 10.0 miles
Clouds Clear
Windchill 20 °F
Dew Point 6 °F
Humidity 45%
Rainfall 0.00 in
Snow Depth Not available.
7:19 AM 6:05 PM
Waxing Crescent, 9% visible
METAR KFQD 110535Z AUTO 28006KT 10SM CLR M04/M17 A3006 RMK AO2 T10361170

10-Day Weather Forecast

Almanac

Astronomy

Feb. 11, 2016 Rise Set
Actual Time
Civil Twilight
Nautical Twilight
Astronomical Twilight
Moon
Length of Visible Light
Length of Day
Tomorrow will be .
, % of the Moon is Illuminated

Today's Extremes

State Highs State Lows

Community

WunderPhotos

Upload Photos

1,892,023 photos uploaded!

WunderBlog® & News

Nearby

Air Quality

  Air Quality AQ Index Pollutant
Not available.

Snow Depth

Station Depth Elevation

Earthquake Activity

City Distance Mag. Time & Date
Minimum magnitude displayed is 2.5.

Coastal Water Temperatures

Place Temperature

Stations

Nearby Weather Stations

Station Location Temp. Windchill Dew Point Humidity Wind Precip. Elev Updated Type
                   

Watches & Warnings

There are currently no watches in effect.